Portada
METAR-TAF:

METAR-TAF

Aeropuertos :

Sarakhs, Irán

latitud: 36-30-04N, longitud: 061-03-54E, altitud: 288 m

Observación

El informe se hizo hace 57 minutos, a las 09:00 UTC
Viento 2 kt del norte-noreste
Temperatura 7°C
Humedad 76%
Presión 1029 hPa

METAR: OIMC 190900Z AUTO 02002KT //// // ////// 07/03 Q1029

Hora: 13:27 (09:57 UTC)


TAF: falta

Observaciones y pronósticos meteorológicos de más de 4000 aeropuertos (mensajes METAR y TAF).

Los puntos amarillos y rojos representan las estaciones disponibles.

Ponga el ratón en el punto deseado para ver el nombre de la estación.

Haga clic para ver las observaciones y los pronósticos meteorológicos.

Para cambiar el mapa : haga clic en los botones verdes con una cruz de color negro para hacer un zoom, en el botón verde con un guión para alejar o en las flechas verdes para mapas adyacentes.


METAR-TAF: